Bodajbo, Russia
Current Conditions -  °F | °C
As of 12:00 PM on Tuesday 21 Oct 2014 (Local Time) from UIAA Reporting Station
Broken Clouds Broken Clouds  
Wind Chill: 21°   Ceiling: 20000
Heat Index: 21°   Visibility: 6mi
Dew Point:   Wind: 2mph
Humidity: 46%   Direction: NA
Pressure: 30.18"   Gusts: NA
Location:  57.85°N, 114.19°E
Report Text: UIAA 210400Z VRB01MPS 9999 FEW100 BKN200 M06/M16 Q1022 NOSIGRMK QFE708 29CLRD70
Loading
Personal Weather Stations






























Interactive Weather Map
Tropical Storm Tracking
New forecast layout! Learn more

10-Day Weather Forecast

Advertisements
Track Severe Weather on mobile